CheckWX is a tool to help pilots better visualize weather data.  It is not intended as a substitute for an official pre-flight weather briefing.

09:10:21 UTC

KLUF TAF
Luke AFB Airport
Glendale, Arizona, USA
TAF KLUF 260400Z 2604/2710 04008KT 9999 SKC QNH3020INS BECMG 2617/2618 06012KT 9999 SKC QNH3044INS BECMG 2701/2702 VRB06KT 9999 SKC QNH3025INS TX19/2623Z TN07/2614Z

Feb-26@
04:00 UTC

Feb-26 @ 04:00 UTC

Feb-26@
17:00 UTC

Feb-26 @ 17:00 UTC

TAF KLUF 260400Z 2604/2710 04008KT 9999 SKC QNH3020INS
Wind
  • 040° at 8 KTS
Cloud Levels
  • Clear skies

Feb-26@
17:00 UTC

Feb-26 @ 17:00 UTC

Feb-27@
01:00 UTC

Feb-27 @ 01:00 UTC

BECMG 2617/2618 06012KT 9999 SKC QNH3044INS

Becoming

Becoming Conditions expected by Wed, Feb 26, 2020 @ 18:00 UTC

Wind
  • 060° at 12 KTS
Cloud Levels
  • Clear skies

Feb-27@
01:00 UTC

Feb-27 @ 01:00 UTC

Feb-27@
10:00 UTC

Feb-27 @ 10:00 UTC

BECMG 2701/2702 VRB06KT 9999 SKC QNH3025INS TX19/2623Z TN07/2614Z

Becoming

Becoming Conditions expected by Thu, Feb 27, 2020 @ 02:00 UTC

Wind
  • Variable at 6 KTS
Cloud Levels
  • Clear skies